Time;durP1;ratioP1;P1;durP2;ratioP2;P2;SDS_P1;SDS_P2;PMS_P1;PMS_P2;Temp;Humidity;BMP_temperature;BMP_pressure;BME280_temperature;BME280_humidity;BME280_pressure;Samples;Min_cycle;Max_cycle;Signal;HPM_P1;HPM_P2
2021/01/26 00:00:13;;;;;;;24.20;5.40;;;;;;;3.07;87.30;101140.56;5095294;28;20303;-76
2021/01/26 00:02:38;;;;;;;23.33;5.10;;;;;;;3.06;88.63;101161.13;5087172;28;20024;-76
2021/01/26 00:05:04;;;;;;;29.67;5.87;;;;;;;3.00;90.38;101164.50;5109200;28;20031;-77
2021/01/26 00:07:29;;;;;;;23.05;5.60;;;;;;;2.92;91.36;101171.72;5085477;28;20062;-77
2021/01/26 00:09:55;;;;;;;21.57;5.93;;;;;;;2.92;90.78;101161.84;5109615;28;20020;-76
2021/01/26 00:12:20;;;;;;;22.97;5.90;;;;;;;2.82;92.57;101170.06;5096204;28;20027;-76
2021/01/26 00:14:45;;;;;;;23.00;5.63;;;;;;;2.80;92.52;101166.75;5097483;28;20020;-76
2021/01/26 00:17:11;;;;;;;19.93;5.40;;;;;;;2.74;93.45;101162.09;5089958;28;20028;-76
2021/01/26 00:19:36;;;;;;;18.33;5.43;;;;;;;2.63;92.97;101159.78;5111184;28;20034;-76
2021/01/26 00:22:02;;;;;;;24.90;5.13;;;;;;;2.58;93.25;101178.97;5104060;28;20019;-76
2021/01/26 00:24:27;;;;;;;19.03;4.63;;;;;;;2.58;92.66;101172.81;5085254;28;20062;-77
2021/01/26 00:26:52;;;;;;;16.13;5.03;;;;;;;2.49;93.17;101168.50;5104395;28;20424;-76
2021/01/26 00:29:17;;;;;;;24.37;6.10;;;;;;;2.50;93.17;101179.03;5098848;28;20023;-76
2021/01/26 00:31:43;;;;;;;20.67;6.77;;;;;;;2.48;93.58;101172.16;5099868;28;20028;-77
2021/01/26 00:34:08;;;;;;;23.37;6.90;;;;;;;2.48;93.98;101186.34;5086368;28;20039;-77
2021/01/26 00:36:33;;;;;;;18.10;6.13;;;;;;;2.51;94.08;101177.19;5105362;28;20432;-76
2021/01/26 00:38:59;;;;;;;14.07;5.30;;;;;;;2.55;93.57;101178.50;5100336;28;20024;-77
2021/01/26 00:41:24;;;;;;;29.43;6.53;;;;;;;2.54;93.32;101191.03;5096877;28;20055;-77
2021/01/26 00:43:49;;;;;;;21.43;5.33;;;;;;;2.54;93.33;101183.03;5092911;28;20107;-77
2021/01/26 00:46:15;;;;;;;28.60;5.57;;;;;;;2.56;92.73;101178.34;5087962;28;20095;-77
2021/01/26 00:48:40;;;;;;;20.50;5.90;;;;;;;2.62;92.77;101173.31;5088308;28;20027;-76
2021/01/26 00:51:05;;;;;;;20.00;5.50;;;;;;;2.71;91.38;101173.13;5112689;28;20297;-76
2021/01/26 00:53:31;;;;;;;20.57;5.30;;;;;;;2.79;90.62;101185.63;5107270;28;20020;-77
2021/01/26 00:55:56;;;;;;;19.93;5.70;;;;;;;2.88;89.85;101173.91;5097975;28;20020;-77
2021/01/26 00:58:21;;;;;;;17.43;4.83;;;;;;;2.90;89.87;101179.06;5107514;28;20031;-76
2021/01/26 01:00:47;;;;;;;24.43;5.30;;;;;;;2.91;90.23;101173.56;5103902;28;20099;-77
2021/01/26 01:03:12;;;;;;;26.33;5.10;;;;;;;2.93;90.37;101186.72;5111282;28;20028;-77
2021/01/26 01:05:38;;;;;;;24.60;5.27;;;;;;;2.92;90.41;101179.72;5098554;28;20026;-77
2021/01/26 01:08:03;;;;;;;24.73;6.03;;;;;;;2.90;90.10;101185.25;5098712;28;20028;-76
2021/01/26 01:10:32;;;;;;;22.40;4.97;;;;;;;2.91;90.38;101186.91;5101299;28;20028;-77
2021/01/26 01:12:58;;;;;;;23.85;5.22;;;;;;;2.90;90.35;101182.56;5106631;28;20028;-77
2021/01/26 01:15:24;;;;;;;21.47;4.77;;;;;;;2.94;89.30;101177.72;5079838;28;20043;-78
2021/01/26 01:17:50;;;;;;;17.98;4.70;;;;;;;3.00;88.60;101195.72;5098392;28;20024;-77
2021/01/26 01:20:17;;;;;;;21.75;5.10;;;;;;;3.05;89.40;101220.09;5098831;28;20051;-77
2021/01/26 01:22:42;;;;;;;24.50;5.38;;;;;;;2.88;91.01;101211.31;5109960;28;20032;-77
2021/01/26 01:25:08;;;;;;;21.70;6.00;;;;;;;2.76;92.16;101212.66;5089959;28;20366;-75
2021/01/26 01:27:34;;;;;;;17.48;5.40;;;;;;;2.65;92.07;101219.19;5092676;28;20054;-76
2021/01/26 01:29:59;;;;;;;14.80;4.47;;;;;;;2.58;91.51;101213.69;5095981;28;20048;-75
2021/01/26 01:32:25;;;;;;;23.73;5.57;;;;;;;2.55;92.02;101216.72;5106094;28;20030;-76
2021/01/26 01:34:50;;;;;;;18.47;6.00;;;;;;;2.48;93.48;101209.53;5098584;28;20024;-76
2021/01/26 01:37:15;;;;;;;28.03;6.10;;;;;;;2.52;93.57;101211.72;5070770;28;20024;-76
2021/01/26 01:39:40;;;;;;;22.67;5.50;;;;;;;2.54;93.01;101220.41;5100934;28;20070;-77
2021/01/26 01:42:16;;;;;;;21.07;5.67;;;;;;;2.58;92.85;101221.69;5099506;28;20329;-76
2021/01/26 01:44:41;;;;;;;24.33;5.80;;;;;;;2.65;92.38;101227.22;5101046;28;20065;-77
2021/01/26 01:47:11;;;;;;;22.87;5.47;;;;;;;2.72;91.71;101236.19;5088827;28;20047;-76
2021/01/26 01:49:42;;;;;;;24.35;5.30;;;;;;;2.77;91.11;101236.53;5103975;28;20028;-76
2021/01/26 01:52:28;;;;;;;21.58;5.18;;;;;;;2.77;90.95;101231.19;5105605;28;20360;-77
2021/01/26 01:55:04;;;;;;;22.20;5.50;;;;;;;2.81;91.03;101245.03;5086345;28;20015;-77
2021/01/26 01:57:39;;;;;;;21.80;5.05;;;;;;;2.82;90.85;101239.50;5094916;28;20051;-77
2021/01/26 02:00:10;;;;;;;25.17;5.70;;;;;;;2.90;89.16;101229.84;5084396;28;20103;-77
2021/01/26 02:02:42;;;;;;;27.83;5.20;;;;;;;2.92;89.14;101243.84;5100898;28;20027;-77
2021/01/26 02:05:09;;;;;;;20.35;4.63;;;;;;;2.92;89.87;101243.84;5086189;28;20024;-77
2021/01/26 02:07:34;;;;;;;21.42;4.80;;;;;;;2.94;89.09;101244.50;5100272;28;20027;-77
2021/01/26 02:10:00;;;;;;;27.17;5.82;;;;;;;2.93;89.05;101253.50;5111797;28;20034;-76
2021/01/26 02:12:25;;;;;;;18.30;4.57;;;;;;;2.88;89.53;101258.53;5102837;28;20027;-76
2021/01/26 02:14:56;;;;;;;16.48;4.38;;;;;;;2.90;88.72;101270.72;5091596;28;20424;-77
2021/01/26 02:17:32;;;;;;;19.67;4.47;;;;;;;2.90;89.00;101252.03;5098218;28;20685;-77
2021/01/26 02:20:49;;;;;;;20.40;4.55;;;;;;;2.86;88.66;101263.22;5094210;28;20051;-77
2021/01/26 02:23:45;;;;;;;19.58;4.30;;;;;;;2.70;89.35;101266.75;5100308;28;20058;-76
2021/01/26 02:26:46;;;;;;;19.10;4.13;;;;;;;2.66;90.01;101262.75;5095505;28;20032;-77
2021/01/26 02:29:18;;;;;;;14.63;3.90;;;;;;;2.55;90.67;101261.28;5074811;28;20381;-77
2021/01/26 02:32:23;;;;;;;21.00;6.13;;;;;;;2.45;90.96;101263.28;5075460;28;20418;-77
2021/01/26 02:35:10;;;;;;;17.40;4.60;;;;;;;2.50;90.24;101258.28;5084699;28;20086;-76
2021/01/26 02:37:38;;;;;;;26.65;4.85;;;;;;;2.62;88.87;101264.94;5071985;28;20024;-76
2021/01/26 02:40:23;;;;;;;25.92;4.50;;;;;;;2.60;88.84;101264.28;5093809;28;20108;-76
2021/01/26 02:43:05;;;;;;;16.92;4.85;;;;;;;2.66;88.70;101266.25;5076361;28;20051;-76
2021/01/26 02:45:42;;;;;;;16.95;3.78;;;;;;;2.69;88.79;101276.63;5090064;28;20033;-76
2021/01/26 02:48:17;;;;;;;21.70;4.38;;;;;;;2.73;88.17;101275.28;5078169;28;20070;-76
2021/01/26 02:50:52;;;;;;;23.85;4.55;;;;;;;2.77;88.43;101284.59;5072685;28;20087;-76
2021/01/26 02:53:38;;;;;;;18.13;3.97;;;;;;;2.82;87.93;101292.09;5077412;28;20356;-76
2021/01/26 02:56:15;;;;;;;16.27;3.55;;;;;;;2.83;87.72;101278.59;5070093;28;20032;-76
2021/01/26 02:58:46;;;;;;;16.70;3.22;;;;;;;2.86;87.47;101290.75;5078854;28;20298;-77
2021/01/26 03:01:13;;;;;;;12.88;2.72;;;;;;;2.88;87.43;101287.91;5081786;28;20035;-76
2021/01/26 03:03:45;;;;;;;17.90;3.20;;;;;;;2.84;87.17;101298.13;5082489;28;20029;-76
2021/01/26 03:06:18;;;;;;;7.70;2.40;;;;;;;2.84;87.17;101296.28;5076752;28;20028;-76
2021/01/26 03:09:15;;;;;;;16.52;3.78;;;;;;;2.82;86.52;101290.25;5071548;28;20116;-76
2021/01/26 03:11:58;;;;;;;17.63;4.22;;;;;;;2.78;86.94;101299.66;5074390;28;20424;-76
2021/01/26 03:14:36;;;;;;;13.13;2.95;;;;;;;2.72;88.13;101302.13;5088492;28;20024;-77
2021/01/26 03:17:24;;;;;;;13.60;2.95;;;;;;;2.74;88.18;101297.47;5095383;28;20016;-76
2021/01/26 03:19:51;;;;;;;12.02;3.10;;;;;;;2.74;88.16;101302.81;5064328;28;20154;-76
2021/01/26 03:22:21;;;;;;;20.42;3.70;;;;;;;2.77;88.30;101300.63;5099058;28;20352;-76
2021/01/26 03:24:52;;;;;;;19.25;4.05;;;;;;;2.78;88.56;101304.13;5085925;28;20025;-76
2021/01/26 03:27:20;;;;;;;16.20;4.00;;;;;;;2.80;88.53;101321.66;5083575;28;20086;-76
2021/01/26 03:29:50;;;;;;;19.60;3.45;;;;;;;2.81;89.72;101342.03;5114205;28;20423;-76
2021/01/26 03:32:23;;;;;;;23.65;4.35;;;;;;;2.74;91.72;101343.72;5106491;28;20020;-77
2021/01/26 03:34:48;;;;;;;17.30;4.35;;;;;;;2.67;91.88;101339.19;5097429;28;20035;-76
2021/01/26 03:37:14;;;;;;;21.17;4.20;;;;;;;2.67;91.20;101339.19;5110056;28;20020;-78
2021/01/26 03:39:40;;;;;;;24.13;3.88;;;;;;;2.63;91.67;101351.19;5110792;28;20031;-77
2021/01/26 03:42:06;;;;;;;26.47;4.60;;;;;;;2.61;92.02;101356.72;5115286;28;20030;-76
2021/01/26 03:44:32;;;;;;;;;;;;;;;2.59;92.44;101364.06;5119221;28;20495;-74
2021/01/26 03:47:23;;;;;;;24.98;5.60;;;;;;;2.46;93.22;101363.72;5100348;28;20014;-75
2021/01/26 03:49:58;;;;;;;21.33;4.32;;;;;;;2.40;94.12;101351.88;5101807;28;20066;-76
2021/01/26 03:52:51;;;;;;;24.73;6.15;;;;;;;2.37;93.22;101357.53;5115181;28;20294;-76
2021/01/26 03:55:25;;;;;;;23.30;5.20;;;;;;;2.32;93.93;101355.34;5118295;28;20027;-76
2021/01/26 03:58:02;;;;;;;23.83;4.45;;;;;;;2.30;94.12;101368.03;5101306;28;20032;-76
2021/01/26 04:00:37;;;;;;;26.23;5.53;;;;;;;2.37;94.37;101352.19;5113621;28;20030;-76
2021/01/26 04:03:18;;;;;;;24.83;5.75;;;;;;;2.48;93.28;101367.03;5113714;28;20084;-76
2021/01/26 04:05:54;;;;;;;24.83;6.15;;;;;;;2.50;93.19;101365.06;5118091;28;20313;-76
2021/01/26 04:08:45;;;;;;;26.90;6.75;;;;;;;2.47;93.58;101368.88;5109415;28;20031;-77
2021/01/26 04:11:23;;;;;;;24.63;6.38;;;;;;;2.50;93.51;101373.06;5106594;28;20043;-77
2021/01/26 04:13:59;;;;;;;21.85;4.78;;;;;;;2.49;92.72;101380.25;5112354;28;20057;-77
2021/01/26 04:16:27;;;;;;;;;;;;;;;2.43;93.35;101383.56;5092565;28;20019;-77
2021/01/26 04:18:54;;;;;;;25.85;4.70;;;;;;;2.51;92.96;101370.22;5101951;28;19983;-77
2021/01/26 04:21:20;;;;;;;22.40;4.40;;;;;;;2.54;92.64;101379.75;5116900;28;20311;-77
2021/01/26 04:23:52;;;;;;;;;;;;;;;2.55;91.99;101392.09;5114643;28;20106;-77
2021/01/26 04:26:18;;;;;;;18.90;4.28;;;;;;;2.60;92.21;101392.44;5113768;28;19912;-77
2021/01/26 04:28:47;;;;;;;20.27;4.40;;;;;;;2.64;91.41;101392.94;5079092;28;20051;-77
2021/01/26 04:31:14;;;;;;;20.02;5.00;;;;;;;2.63;92.12;101400.09;5097628;28;20120;-77
2021/01/26 04:33:40;;;;;;;20.50;4.45;;;;;;;2.60;92.69;101413.78;5100854;28;20359;-77
2021/01/26 04:36:07;;;;;;;17.08;4.28;;;;;;;2.56;93.34;101410.63;5117416;28;20034;-76
2021/01/26 04:38:32;;;;;;;;;;;;;;;2.52;94.05;101411.09;5105313;28;20028;-76
2021/01/26 04:41:04;;;;;;;24.95;5.00;;;;;;;2.50;94.52;101413.94;5104686;28;19998;-76
2021/01/26 04:43:53;;;;;;;28.08;5.00;;;;;;;2.51;93.47;101418.28;5103183;28;20374;-76
2021/01/26 04:46:38;;;;;;;21.85;5.03;;;;;;;2.46;93.92;101425.13;5099438;28;20054;-77
2021/01/26 04:49:35;;;;;;;30.63;4.93;;;;;;;2.46;93.37;101427.78;5106049;28;20363;-77
2021/01/26 04:52:03;;;;;;;27.60;5.47;;;;;;;2.45;93.66;101424.28;5108684;28;20094;-76
2021/01/26 04:55:00;;;;;;;28.45;6.43;;;;;;;2.46;92.62;101433.97;5102143;28;20279;-76
2021/01/26 04:57:58;;;;;;;27.73;6.13;;;;;;;2.46;92.94;101430.47;5034705;28;20161;-77
2021/01/26 05:00:42;;;;;;;26.75;5.03;;;;;;;2.38;93.12;101427.75;5012337;28;20046;-77
2021/01/26 05:03:40;;;;;;;25.23;5.97;;;;;;;2.31;93.31;101427.59;5013921;28;20029;-77
2021/01/26 05:06:11;;;;;;;29.17;4.68;;;;;;;2.39;92.76;101434.75;5014601;28;20030;-77
2021/01/26 05:08:41;;;;;;;21.13;5.25;;;;;;;2.39;92.81;101434.75;5009779;28;20104;-77
2021/01/26 05:11:14;;;;;;;20.02;4.35;;;;;;;2.40;92.56;101428.44;5010226;28;20034;-77
2021/01/26 05:13:47;;;;;;;28.15;4.80;;;;;;;2.43;92.39;101436.94;5012846;28;20062;-77
2021/01/26 05:16:15;;;;;;;23.08;4.63;;;;;;;2.45;92.02;101440.31;5014233;28;20044;-77
2021/01/26 05:18:43;;;;;;;15.77;3.92;;;;;;;2.46;92.00;101443.81;5013001;28;20034;-77
2021/01/26 05:21:18;;;;;;;21.90;4.32;;;;;;;2.47;92.17;101443.63;5013411;28;20050;-77
2021/01/26 05:23:49;;;;;;;26.58;4.72;;;;;;;2.49;92.80;101454.13;5013888;28;20026;-77
2021/01/26 05:26:15;;;;;;;27.15;4.53;;;;;;;2.51;93.43;101471.69;5013835;28;20041;-77
2021/01/26 05:28:45;;;;;;;20.17;4.65;;;;;;;2.53;93.39;101476.84;5008170;28;20050;-76
2021/01/26 05:31:25;;;;;;;23.67;5.10;;;;;;;2.51;93.91;101465.50;5022922;28;20116;-76
2021/01/26 05:33:51;;;;;;;28.42;5.22;;;;;;;2.51;94.32;101478.84;5086187;28;20036;-76
2021/01/26 05:36:16;;;;;;;26.77;5.82;;;;;;;2.50;94.25;101485.19;5108854;28;20076;-76
2021/01/26 05:38:42;;;;;;;24.17;4.97;;;;;;;2.44;94.54;101476.00;5108881;28;20028;-76
2021/01/26 05:41:08;;;;;;;31.77;5.23;;;;;;;2.42;95.05;101471.81;5103820;28;20417;-76
2021/01/26 05:43:35;;;;;;;33.28;6.18;;;;;;;2.39;94.86;101473.00;5106152;28;20349;-76
2021/01/26 05:46:05;;;;;;;28.13;5.63;;;;;;;2.41;95.23;101476.31;5080743;28;20036;-76
2021/01/26 05:48:45;;;;;;;26.63;5.05;;;;;;;2.41;94.98;101475.50;5110082;28;20031;-76
2021/01/26 05:51:24;;;;;;;24.98;5.55;;;;;;;2.48;94.45;101497.84;5094011;28;20015;-76
2021/01/26 05:53:54;;;;;;;19.60;4.75;;;;;;;2.46;93.77;101498.03;5106105;28;20052;-77
2021/01/26 05:56:21;;;;;;;20.10;5.53;;;;;;;2.31;94.14;101497.81;5077237;28;20045;-77
2021/01/26 05:58:47;;;;;;;;;;;;;;;2.25;93.68;101494.97;5115073;28;20421;-76
2021/01/26 06:01:31;;;;;;;22.63;5.63;;;;;;;2.15;94.53;101487.09;5102962;28;19987;-77
2021/01/26 06:04:14;;;;;;;15.30;4.32;;;;;;;2.05;95.03;101491.72;5089491;28;20031;-77
2021/01/26 06:06:51;;;;;;;22.55;5.22;;;;;;;1.97;94.37;101492.50;5101061;28;20033;-76
2021/01/26 06:09:39;;;;;;;19.67;4.63;;;;;;;1.95;93.70;101496.28;5112346;28;20031;-77
2021/01/26 06:12:17;;;;;;;19.52;4.60;;;;;;;1.89;94.41;101497.75;5113390;28;20051;-77
2021/01/26 06:14:56;;;;;;;18.70;4.70;;;;;;;1.85;94.65;101511.56;5086023;28;20025;-77
2021/01/26 06:17:28;;;;;;;18.65;4.60;;;;;;;1.83;94.67;101513.56;5092589;28;20033;-77
2021/01/26 06:20:15;;;;;;;21.27;5.00;;;;;;;1.78;95.41;101517.53;5094358;28;20043;-77
2021/01/26 06:22:44;;;;;;;19.48;5.03;;;;;;;1.79;95.29;101518.38;5101232;28;20027;-77
2021/01/26 06:25:26;;;;;;;20.85;5.13;;;;;;;1.78;95.51;101516.72;5091529;28;20033;-77
2021/01/26 06:28:28;;;;;;;16.25;4.70;;;;;;;1.78;95.75;101525.53;5098169;28;20346;-76
2021/01/26 06:31:15;;;;;;;18.25;4.57;;;;;;;1.88;95.79;101524.59;5112708;28;20019;-77
2021/01/26 06:33:47;;;;;;;22.42;4.72;;;;;;;1.98;94.63;101528.00;5104538;28;20019;-77
2021/01/26 06:36:39;;;;;;;15.90;2.63;;;;;;;2.00;93.44;101537.53;5096590;28;20024;-77
2021/01/26 06:39:39;;;;;;;13.18;2.75;;;;;;;1.96;93.57;101538.00;5095784;28;20405;-77
2021/01/26 06:42:18;;;;;;;15.70;2.30;;;;;;;1.88;93.80;101545.94;5117751;28;20030;-77
2021/01/26 06:44:53;;;;;;;16.63;2.60;;;;;;;1.91;94.29;101553.63;5088576;28;20028;-77
2021/01/26 06:47:59;;;;;;;8.10;1.85;;;;;;;2.00;94.10;101552.66;5104977;28;20020;-78
2021/01/26 06:50:43;;;;;;;9.13;2.35;;;;;;;2.01;93.88;101560.53;5081279;28;20345;-77
2021/01/26 06:53:46;;;;;;;16.15;2.75;;;;;;;1.98;94.22;101560.84;5115908;28;20421;-77
2021/01/26 06:56:26;;;;;;;11.43;2.65;;;;;;;1.99;94.49;101562.50;5087048;28;20031;-78
2021/01/26 06:59:25;;;;;;;13.40;3.03;;;;;;;2.01;94.57;101575.72;5104643;28;20108;-76
2021/01/26 07:02:03;;;;;;;12.98;3.45;;;;;;;2.01;95.19;101575.72;5097430;28;20380;-75
2021/01/26 07:05:00;;;;;;;11.60;4.43;;;;;;;2.06;94.36;101576.06;5096804;28;20028;-76
2021/01/26 07:07:59;;;;;;;9.77;3.15;;;;;;;1.89;94.78;101585.78;5108269;28;20029;-76
2021/01/26 07:10:42;;;;;;;15.27;4.00;;;;;;;1.83;95.58;101593.59;5113972;28;20099;-76
2021/01/26 07:13:23;;;;;;;26.08;4.43;;;;;;;1.80;95.79;101594.72;5093944;28;20024;-77
2021/01/26 07:16:03;;;;;;;21.38;4.55;;;;;;;1.83;95.68;101598.91;5076090;28;20031;-77
2021/01/26 07:18:34;;;;;;;17.48;4.60;;;;;;;1.93;95.09;101611.16;5115098;28;20027;-76
2021/01/26 07:21:18;;;;;;;17.98;4.53;;;;;;;1.90;95.01;101613.28;5115061;28;20020;-76
2021/01/26 07:24:09;;;;;;;17.73;5.15;;;;;;;1.88;95.47;101615.28;5119033;28;20033;-75
2021/01/26 07:27:16;;;;;;;32.47;6.78;;;;;;;1.83;95.46;101620.25;5092182;28;20030;-76
2021/01/26 07:30:10;;;;;;;22.95;6.13;;;;;;;1.83;95.73;101626.41;5021980;28;20071;-77
2021/01/26 07:32:54;;;;;;;32.75;6.47;;;;;;;1.88;95.58;101629.47;4903670;29;20149;-76
2021/01/26 07:36:14;;;;;;;25.65;5.85;;;;;;;1.85;95.22;101636.94;4919702;29;20367;-76
2021/01/26 07:38:48;;;;;;;17.85;4.93;;;;;;;1.86;94.97;101635.97;4889783;29;20147;-76
2021/01/26 07:41:37;;;;;;;19.25;5.03;;;;;;;1.87;95.17;101648.28;4919980;29;20028;-76
2021/01/26 07:44:09;;;;;;;17.65;3.58;;;;;;;1.92;94.42;101644.16;4919143;29;20044;-76
2021/01/26 07:47:15;;;;;;;16.42;4.70;;;;;;;1.93;94.05;101655.66;4919428;29;20391;-76
2021/01/26 07:50:02;;;;;;;14.98;3.30;;;;;;;1.92;94.36;101662.00;4918561;29;20114;-76
2021/01/26 07:52:36;;;;;;;18.15;3.50;;;;;;;1.97;93.40;101663.22;4919252;29;20055;-76
2021/01/26 07:55:10;;;;;;;13.20;3.40;;;;;;;1.94;93.84;101663.50;4919741;29;20131;-76
2021/01/26 07:57:46;;;;;;;18.42;3.25;;;;;;;1.94;94.09;101676.00;4919071;29;20040;-76
2021/01/26 08:00:18;;;;;;;10.87;3.33;;;;;;;1.94;93.85;101684.00;4919499;29;20092;-77
2021/01/26 08:02:52;;;;;;;10.05;3.00;;;;;;;1.98;93.88;101680.06;4917004;29;20410;-77
2021/01/26 08:05:19;;;;;;;18.05;4.05;;;;;;;2.01;94.04;101682.41;4903759;29;20024;-77
2021/01/26 08:07:47;;;;;;;12.30;3.67;;;;;;;2.00;93.64;101692.25;4953337;28;20198;-77
2021/01/26 08:10:21;;;;;;;14.63;3.58;;;;;;;1.99;93.24;101689.72;5052470;28;20036;-77
2021/01/26 08:12:50;;;;;;;12.70;3.15;;;;;;;2.01;93.08;101691.25;5072928;28;20036;-76
2021/01/26 08:15:30;;;;;;;10.98;3.55;;;;;;;1.98;92.99;101696.06;5076774;28;20425;-78
2021/01/26 08:17:56;;;;;;;9.65;2.90;;;;;;;1.99;92.67;101690.56;5071951;28;20043;-77
2021/01/26 08:20:24;;;;;;;13.43;3.20;;;;;;;2.05;93.14;101699.81;5078753;28;20028;-77
2021/01/26 08:23:00;;;;;;;11.27;3.60;;;;;;;2.11;92.70;101695.66;5079733;28;20406;-76
2021/01/26 08:25:30;;;;;;;8.43;3.10;;;;;;;2.18;92.90;101700.22;5077233;28;20032;-77
2021/01/26 08:27:58;;;;;;;9.85;3.63;;;;;;;2.26;92.24;101702.97;5083262;28;20040;-77
2021/01/26 08:30:48;;;;;;;21.67;3.88;;;;;;;2.35;92.55;101705.69;5082996;28;20065;-77
2021/01/26 08:33:25;;;;;;;9.88;2.90;;;;;;;2.48;92.03;101703.44;5099400;28;20023;-77
2021/01/26 08:36:23;;;;;;;13.27;3.15;;;;;;;2.62;90.96;101716.19;5117678;28;20019;-77
2021/01/26 08:39:01;;;;;;;10.85;3.38;;;;;;;2.67;90.56;101724.56;5117573;28;20026;-77
2021/01/26 08:41:50;;;;;;;12.50;4.25;;;;;;;2.71;90.42;101717.94;5111109;28;20023;-77
2021/01/26 08:44:22;;;;;;;10.40;3.03;;;;;;;2.75;90.08;101718.47;5085200;28;20028;-77
2021/01/26 08:46:50;;;;;;;8.20;2.63;;;;;;;2.72;90.70;101719.59;5083354;28;20028;-76
2021/01/26 08:49:21;;;;;;;9.88;2.92;;;;;;;2.72;90.27;101735.63;5117515;28;20046;-74
2021/01/26 08:51:47;;;;;;;7.28;2.78;;;;;;;2.75;90.31;101739.81;5100688;28;20039;-77
2021/01/26 08:54:44;;;;;;;7.07;2.40;;;;;;;2.78;89.62;101745.69;5117171;28;20027;-76
2021/01/26 08:57:28;;;;;;;6.40;2.40;;;;;;;2.78;90.62;101745.69;5098818;28;20024;-75
2021/01/26 08:59:58;;;;;;;7.97;2.42;;;;;;;2.77;90.81;101748.50;5091459;28;20036;-76
2021/01/26 09:02:53;;;;;;;7.75;1.90;;;;;;;2.78;90.87;101756.38;5092189;28;20047;-78
2021/01/26 09:05:40;;;;;;;7.15;2.15;;;;;;;2.78;90.23;101756.38;5010908;28;20387;-77
2021/01/26 09:08:07;;;;;;;5.28;1.67;;;;;;;2.75;90.35;101754.00;4988759;28;20037;-77
2021/01/26 09:10:48;;;;;;;6.90;2.20;;;;;;;2.77;90.57;101754.69;5013426;28;20077;-77
2021/01/26 09:13:23;;;;;;;7.57;2.58;;;;;;;2.82;90.75;101762.22;5014024;28;20050;-77
2021/01/26 09:15:52;;;;;;;8.35;2.80;;;;;;;2.82;91.10;101770.25;5013983;28;20423;-78
2021/01/26 09:18:26;;;;;;;9.27;3.08;;;;;;;2.82;91.28;101779.09;5014321;28;20029;-78
2021/01/26 09:21:11;;;;;;;12.80;3.97;;;;;;;2.84;91.65;101776.28;4999137;28;20041;-78
2021/01/26 09:23:41;;;;;;;9.82;4.05;;;;;;;2.81;91.80;101782.75;5033802;28;20112;-77
2021/01/26 09:26:15;;;;;;;13.95;4.43;;;;;;;2.82;92.07;101779.09;5016726;28;20061;-77
2021/01/26 09:28:42;;;;;;;12.40;3.50;;;;;;;2.83;92.27;101790.59;5033451;28;20053;-77
2021/01/26 09:31:11;;;;;;;14.38;3.92;;;;;;;2.88;92.58;101796.34;5034105;28;20065;-77
2021/01/26 09:33:37;;;;;;;16.13;4.28;;;;;;;2.93;91.77;101801.19;5033940;28;20462;-78
2021/01/26 09:36:02;;;;;;;14.88;4.40;;;;;;;2.97;91.86;101799.88;5033740;28;20108;-78
2021/01/26 09:38:31;;;;;;;13.23;4.30;;;;;;;2.99;91.52;101795.25;5034252;28;20418;-78
2021/01/26 09:41:03;;;;;;;15.55;4.55;;;;;;;3.08;91.55;101802.31;5049248;28;20119;-78
2021/01/26 09:43:30;;;;;;;15.07;4.00;;;;;;;3.10;91.16;101808.31;5089345;28;20019;-78
2021/01/26 09:46:00;;;;;;;11.50;3.03;;;;;;;3.16;90.74;101820.22;5100374;28;20029;-78
2021/01/26 09:48:34;;;;;;;9.60;3.60;;;;;;;3.21;91.56;101825.91;5086243;28;20032;-79
2021/01/26 09:51:09;;;;;;;20.10;3.88;;;;;;;3.25;89.86;101832.63;5106367;28;20035;-78
2021/01/26 09:53:35;;;;;;;9.38;2.88;;;;;;;3.23;90.41;101831.97;5093945;28;20028;-77
2021/01/26 09:56:02;;;;;;;13.40;3.97;;;;;;;3.22;90.57;101833.78;5116489;28;20414;-78
2021/01/26 09:58:27;;;;;;;10.90;3.03;;;;;;;3.24;90.21;101842.50;5083736;28;20111;-77
2021/01/26 10:00:54;;;;;;;13.82;2.47;;;;;;;3.26;89.20;101843.16;5089076;28;20119;-78
2021/01/26 10:03:26;;;;;;;14.32;2.67;;;;;;;3.35;89.30;101852.91;5098831;28;20044;-78
2021/01/26 10:05:56;;;;;;;8.13;2.20;;;;;;;3.38;88.18;101850.91;5108194;28;20070;-77
2021/01/26 10:08:32;;;;;;;9.13;2.17;;;;;;;3.38;88.32;101848.25;5081569;28;20070;-78
2021/01/26 10:11:12;;;;;;;13.13;2.30;;;;;;;3.40;88.00;101854.25;5100939;28;20062;-77
2021/01/26 10:13:40;;;;;;;9.45;2.35;;;;;;;3.39;88.68;101855.25;5102980;28;20281;-77
2021/01/26 10:16:28;;;;;;;8.52;1.77;;;;;;;3.44;88.29;101863.66;5096349;28;20032;-78
2021/01/26 10:18:58;;;;;;;9.38;1.90;;;;;;;3.46;88.33;101861.63;5115913;28;20028;-78
2021/01/26 10:21:30;;;;;;;10.90;2.38;;;;;;;3.48;88.39;101865.84;5101396;28;20028;-76
2021/01/26 10:24:03;;;;;;;13.95;2.80;;;;;;;3.46;88.14;101861.63;5111486;28;20031;-77
2021/01/26 10:26:35;;;;;;;9.60;2.10;;;;;;;3.49;88.22;101864.00;5109647;28;20024;-77
2021/01/26 10:29:07;;;;;;;9.48;1.65;;;;;;;3.51;87.83;101867.34;5082562;28;20053;-77
2021/01/26 10:31:59;;;;;;;6.22;1.95;;;;;;;3.50;88.49;101863.00;5099284;28;20111;-77
2021/01/26 10:34:29;;;;;;;7.43;1.75;;;;;;;3.55;88.55;101860.69;5110085;28;20035;-77
2021/01/26 10:36:55;;;;;;;6.95;1.75;;;;;;;3.68;88.41;101861.09;5087917;28;20038;-78
2021/01/26 10:39:29;;;;;;;8.73;2.17;;;;;;;3.71;87.91;101854.56;5105169;28;20040;-79
2021/01/26 10:42:06;;;;;;;6.95;1.98;;;;;;;3.79;87.43;101854.59;5098149;28;20036;-78
2021/01/26 10:44:32;;;;;;;8.02;2.00;;;;;;;3.84;87.10;101866.47;5077324;28;20050;-79
2021/01/26 10:46:58;;;;;;;10.52;2.13;;;;;;;3.94;86.42;101860.16;5096473;28;20111;-79
2021/01/26 10:49:30;;;;;;;6.63;1.98;;;;;;;4.05;87.19;101865.22;5116046;28;20408;-79
2021/01/26 10:51:59;;;;;;;15.23;3.03;;;;;;;4.11;85.04;101864.56;5100227;28;20028;-79
2021/01/26 10:54:24;;;;;;;8.55;2.28;;;;;;;4.13;85.19;101868.75;5108469;28;20337;-79
2021/01/26 10:56:50;;;;;;;8.43;2.47;;;;;;;4.15;86.06;101868.59;5101728;28;20032;-79
2021/01/26 10:59:17;;;;;;;8.83;2.33;;;;;;;4.21;84.90;101870.63;5099786;28;20033;-79
2021/01/26 11:01:43;;;;;;;8.55;2.50;;;;;;;4.27;85.47;101872.63;5112302;28;20051;-79
2021/01/26 11:04:10;;;;;;;16.73;3.30;;;;;;;4.26;84.66;101870.97;5081938;28;20065;-79
2021/01/26 11:06:35;;;;;;;;;;;;;;;4.29;84.10;101878.66;5103447;28;20070;-80
2021/01/26 11:09:00;;;;;;;13.47;3.33;;;;;;;4.21;84.14;101873.31;5114595;28;20233;-80
2021/01/26 11:11:28;;;;;;;8.83;2.77;;;;;;;4.12;84.63;101875.13;5083210;28;20278;-80
2021/01/26 11:13:55;;;;;;;15.85;3.53;;;;;;;4.11;85.68;101870.75;5113180;28;20023;-80
2021/01/26 11:16:22;;;;;;;14.15;3.90;;;;;;;4.09;85.62;101874.59;5096712;28;20017;-80
2021/01/26 11:18:48;;;;;;;14.10;3.70;;;;;;;4.09;85.44;101874.59;5071880;28;20137;-80
2021/01/26 11:21:13;;;;;;;20.60;3.90;;;;;;;4.08;85.60;101873.75;5111817;28;20111;-80
2021/01/26 11:23:40;;;;;;;12.63;3.90;;;;;;;4.07;85.55;101877.44;5119286;28;20019;-80
2021/01/26 11:26:06;;;;;;;15.18;4.05;;;;;;;4.10;85.43;101878.97;5114378;28;20025;-81
2021/01/26 11:28:33;;;;;;;13.13;3.95;;;;;;;4.07;85.92;101877.44;5107223;28;20116;-80
2021/01/26 11:30:58;;;;;;;15.63;4.70;;;;;;;4.00;86.13;101871.06;5106505;28;20019;-80
2021/01/26 11:33:24;;;;;;;14.60;4.43;;;;;;;3.96;85.81;101868.88;5114475;28;20034;-80
2021/01/26 11:35:49;;;;;;;16.63;4.63;;;;;;;3.95;86.72;101869.88;5119168;28;20404;-81
2021/01/26 11:38:15;;;;;;;21.03;4.30;;;;;;;3.96;86.89;101871.56;5077224;28;20523;-80
2021/01/26 11:40:40;;;;;;;14.87;4.77;;;;;;;3.97;85.89;101873.22;5077936;28;20039;-80
2021/01/26 11:43:05;;;;;;;19.97;4.97;;;;;;;3.96;86.23;101867.03;5104927;28;20286;-79
2021/01/26 11:45:34;;;;;;;18.77;5.13;;;;;;;3.95;86.60;101867.19;5115135;28;20171;-79
2021/01/26 11:48:00;;;;;;;11.57;3.72;;;;;;;3.99;85.20;101869.38;5108932;28;20024;-80
2021/01/26 11:50:26;;;;;;;;;;;;;;;4.08;86.11;101872.94;5095300;28;20029;-78
2021/01/26 11:52:52;;;;;;;15.07;4.32;;;;;;;4.05;86.60;101874.09;5108277;28;19965;-79
2021/01/26 11:55:24;;;;;;;10.63;3.83;;;;;;;4.09;86.97;101874.59;5099889;28;20031;-80
2021/01/26 11:57:50;;;;;;;15.23;4.38;;;;;;;4.15;84.73;101876.63;5118286;28;20019;-79
2021/01/26 12:00:21;;;;;;;12.27;3.67;;;;;;;4.22;85.28;101876.81;5081245;28;20024;-80